MCL Express — V2AS7 — position and weather

sailwx.info

Track history (hours):
 
Tides and Currents Weather Stations Pressure Air Temp Water Temp Dewpoint Dewpoint Depression Visibility Wind Speed Wind Dir Waves Ship Positions

MCL Express

Last reported at 2018-Apr-18 08:02 UTC. Time now 2018-Apr-26 11:44 UTC.
Position N 33°55' E 035°28'.
Warning: this ship's position is 8 days out of date.

Length 93 m; draft 5.8 m.

Type: Cargo ship. MMSI: 304010998.

Date/timePositionNaut miles runAvg speedWind from/ knotsBaromVisibWave heightAir tempDewpointWater temp
2018-Apr-18 08:02N 33°55' E 035°28'0 8.1
2018-Apr-18 07:59N 33°55' E 035°27'5 8.7
2018-Apr-18 07:23N 33°55' E 035°21'4 9.3
2018-Apr-18 06:59N 33°54' E 035°17'24 9.5
2018-Apr-18 04:30N 33°41' E 034°53'8 9.8
2018-Apr-18 03:43N 33°37' E 034°46'2 9.6
2018-Apr-18 03:30N 33°35' E 034°44'5 9.4
2018-Apr-18 03:00N 33°32' E 034°39'5 9.6
2018-Apr-18 02:31N 33°30' E 034°35'5 9.6
2018-Apr-18 02:00N 33°27' E 034°30'5 9.6
2018-Apr-18 01:30N 33°24' E 034°25'5 9.4
2018-Apr-18 01:00N 33°21' E 034°21'5 9.4
2018-Apr-18 00:30N 33°18' E 034°16'5 9.6
2018-Apr-18 00:01N 33°15' E 034°12'5 9.8
2018-Apr-17 23:31N 33°12' E 034°07'5 9.8
2018-Apr-17 23:00N 33°09' E 034°03'5 9.6
2018-Apr-17 22:31N 33°06' E 033°58'5 9.6
2018-Apr-17 22:00N 33°03' E 033°54'5 9.4
2018-Apr-17 21:30N 32°60' E 033°50'5 9.4
2018-Apr-17 21:00N 32°57' E 033°45'5 9.1
2018-Apr-17 20:30N 32°54' E 033°41'4 8.7
2018-Apr-17 20:00N 32°52' E 033°37'4 8.6
2018-Apr-17 19:30N 32°49' E 033°33'4 8.5
2018-Apr-17 19:01N 32°47' E 033°28'4 8.5
2018-Apr-17 18:30N 32°45' E 033°24'4 8.5
2018-Apr-17 18:00N 32°42' E 033°20'4 8.7
2018-Apr-17 17:30N 32°39' E 033°16'5 8.9
2018-Apr-17 16:59N 32°37' E 033°12'4 9.2
2018-Apr-17 16:30N 32°34' E 033°07'5 9.3
2018-Apr-17 16:00N 32°31' E 033°03'5 9.7
2018-Apr-17 15:30N 32°28' E 032°58'5 9.4
2018-Apr-17 15:00N 32°25' E 032°54'5 9.5
2018-Apr-17 14:30N 32°22' E 032°49'5 9.5
2018-Apr-17 14:01N 32°20' E 032°45'5 9.6
2018-Apr-17 13:30N 32°17' E 032°41'21 9.5
2018-Apr-17 11:16N 32°03' E 032°21'3 9.6
2018-Apr-17 11:00N 32°01' E 032°19'5 9.8
2018-Apr-17 10:30N 31°58' E 032°14'13 9.2
2018-Apr-17 09:08N 31°51' E 032°02'3 9.5
2018-Apr-17 08:51N 31°49' E 032°01'3 9.2
2018-Apr-17 08:30N 31°46' E 031°59'13 8.8
2018-Apr-17 07:04N 31°38' E 031°48'1 9.1
2018-Apr-17 07:00N 31°37' E 031°48'8 8.9
2018-Apr-17 06:04N 31°29' E 031°45'2 2.3
2018-Apr-17 05:18N 31°27' E 031°46'0 0.0
2018-Apr-17 04:54N 31°27' E 031°46'0 0.0
2018-Apr-16 20:21N 31°27' E 031°46'0 0.0
2018-Apr-16 17:54N 31°27' E 031°46'0 0.0
2018-Apr-16 16:30N 31°27' E 031°46'4 0.6
2018-Apr-16 08:50N 31°32' E 031°46'15 8.3
2018-Apr-16 06:59N 31°46' E 031°40'59 9.3
2018-Apr-16 00:40N 32°23' E 030°45'310.0
2018-Apr-16 00:22N 32°25' E 030°42'410.0
2018-Apr-15 23:55N 32°28' E 030°38'  
2018-Apr-12 13:18N 37°46' E 016°03'9 9.5
2018-Apr-12 12:18N 37°49' E 015°51'3 9.3
2018-Apr-12 11:59N 37°49' E 015°48'5 9.9
2018-Apr-12 11:30N 37°51' E 015°42'610.4
2018-Apr-12 10:53N 37°56' E 015°37'4 9.8
2018-Apr-12 10:30N 37°59' E 015°34'5 9.7
2018-Apr-12 09:59N 38°04' E 015°34'611.9
2018-Apr-12 09:30N 38°09' E 015°35'610.9
2018-Apr-12 08:59N 38°15' E 015°37'4 8.6
2018-Apr-12 08:30N 38°18' E 015°40'5 9.4
2018-Apr-12 08:00N 38°22' E 015°36'5 9.7
2018-Apr-12 07:30N 38°22' E 015°30'510.2
2018-Apr-12 07:01N 38°25' E 015°24'510.3
2018-Apr-12 06:29N 38°27' E 015°18'510.1
2018-Apr-12 06:00N 38°29' E 015°13'5 9.8
2018-Apr-12 05:30N 38°31' E 015°07'5 9.9
2018-Apr-12 04:58N 38°34' E 015°01'  
2018-Apr-09 13:52N 43°15' E 005°02'3 8.1
2018-Apr-09 13:30N 43°17' E 004°59'4 8.2
2018-Apr-09 13:00N 43°21' E 004°58'4 7.2
2018-Apr-09 12:30N 43°24' E 004°55'2 3.9
2018-Apr-09 11:56N 43°26' E 004°53'0 0.0
2018-Apr-09 11:14N 43°26' E 004°53'0 0.0
2018-Apr-09 10:56N 43°26' E 004°53'0 0.0
2018-Apr-09 10:29N 43°26' E 004°53'0 0.0
2018-Apr-09 09:59N 43°26' E 004°53'0 0.0
2018-Apr-09 09:29N 43°26' E 004°53'0 0.0
2018-Apr-09 08:41N 43°26' E 004°53'0 0.0
2018-Apr-09 08:29N 43°26' E 004°53'0 0.0
2018-Apr-09 07:59N 43°26' E 004°53'0 0.0
2018-Apr-09 07:29N 43°26' E 004°53'0 0.0
2018-Apr-09 06:56N 43°26' E 004°53'0 0.0
2018-Apr-09 06:29N 43°26' E 004°53'0 0.0
2018-Apr-09 05:59N 43°26' E 004°53'0 0.0
2018-Apr-09 05:29N 43°26' E 004°53'0 0.0
2018-Apr-09 04:59N 43°26' E 004°53'0 0.0
2018-Apr-09 04:29N 43°26' E 004°53'0 0.0
2018-Apr-09 03:59N 43°26' E 004°53'0 0.0
2018-Apr-09 03:29N 43°26' E 004°53'0 0.0
2018-Apr-09 02:56N 43°26' E 004°53'0 0.0
2018-Apr-09 01:56N 43°26' E 004°53'0 0.0
2018-Apr-09 01:20N 43°26' E 004°53'0 0.0
2018-Apr-09 00:50N 43°26' E 004°53'0 0.0
2018-Apr-09 00:26N 43°26' E 004°53'0 0.0
2018-Apr-08 23:56N 43°26' E 004°53'0 0.0
2018-Apr-08 23:26N 43°26' E 004°53'0 0.0
2018-Apr-08 22:56N 43°26' E 004°53'0 0.0
2018-Apr-08 22:26N 43°26' E 004°53'0 0.0
2018-Apr-08 21:56N 43°26' E 004°53'0 0.0
2018-Apr-08 21:29N 43°26' E 004°53'0 0.0
2018-Apr-08 20:53N 43°26' E 004°53'0 0.0
2018-Apr-08 20:20N 43°26' E 004°53'0 0.0
2018-Apr-08 19:59N 43°26' E 004°53'0 0.0
2018-Apr-08 19:29N 43°26' E 004°53'0 0.0
2018-Apr-08 18:56N 43°26' E 004°53'0 0.0
2018-Apr-08 18:26N 43°26' E 004°53'0 0.0
2018-Apr-08 17:47N 43°26' E 004°53'0 0.0
2018-Apr-08 17:29N 43°26' E 004°53'0 0.0
2018-Apr-08 16:59N 43°26' E 004°53'0 0.0
2018-Apr-08 16:29N 43°26' E 004°53'0 0.0
2018-Apr-08 15:59N 43°26' E 004°53'0 0.0
2018-Apr-08 15:29N 43°26' E 004°53'0 0.0
2018-Apr-08 14:59N 43°26' E 004°53'0 0.0
2018-Apr-08 14:29N 43°26' E 004°53'0 0.0
2018-Apr-08 13:59N 43°26' E 004°53'0 0.0
2018-Apr-08 13:23N 43°26' E 004°53'0 0.0
2018-Apr-08 12:59N 43°26' E 004°53'0 0.0
2018-Apr-08 12:29N 43°26' E 004°53'0 0.0
2018-Apr-08 11:59N 43°26' E 004°53'0 0.0
2018-Apr-08 11:23N 43°26' E 004°53'0 0.0
2018-Apr-08 10:59N 43°26' E 004°53'0 0.0
2018-Apr-08 10:29N 43°26' E 004°53'0 0.0
2018-Apr-08 09:59N 43°26' E 004°53'0 0.0
2018-Apr-08 09:29N 43°26' E 004°53'0 0.0
2018-Apr-08 08:59N 43°26' E 004°53'0 0.0
2018-Apr-08 08:29N 43°26' E 004°53'  
Track history (hours):
 
Tides and Currents Weather Stations Pressure Air Temp Water Temp Dewpoint Dewpoint Depression Visibility Wind Speed Wind Dir Waves Ship Positions

MCL Express

Last reported at 2018-Apr-18 08:02 UTC. Time now 2018-Apr-26 11:44 UTC.
Position N 33°55' E 035°28'.
Warning: this ship's position is 8 days out of date.

Length 93 m; draft 5.8 m.

Type: Cargo ship. MMSI: 304010998.

Date/timePositionNaut miles runAvg speedWind from/ knotsBaromVisibWave heightAir tempDewpointWater temp
2018-Apr-18 08:02N 33°55' E 035°28'0 8.1
2018-Apr-18 07:59N 33°55' E 035°27'5 8.7
2018-Apr-18 07:23N 33°55' E 035°21'4 9.3
2018-Apr-18 06:59N 33°54' E 035°17'24 9.5
2018-Apr-18 04:30N 33°41' E 034°53'8 9.8
2018-Apr-18 03:43N 33°37' E 034°46'2 9.6
2018-Apr-18 03:30N 33°35' E 034°44'5 9.4
2018-Apr-18 03:00N 33°32' E 034°39'5 9.6
2018-Apr-18 02:31N 33°30' E 034°35'5 9.6
2018-Apr-18 02:00N 33°27' E 034°30'5 9.6
2018-Apr-18 01:30N 33°24' E 034°25'5 9.4
2018-Apr-18 01:00N 33°21' E 034°21'5 9.4
2018-Apr-18 00:30N 33°18' E 034°16'5 9.6
2018-Apr-18 00:01N 33°15' E 034°12'5 9.8
2018-Apr-17 23:31N 33°12' E 034°07'5 9.8
2018-Apr-17 23:00N 33°09' E 034°03'5 9.6
2018-Apr-17 22:31N 33°06' E 033°58'5 9.6
2018-Apr-17 22:00N 33°03' E 033°54'5 9.4
2018-Apr-17 21:30N 32°60' E 033°50'5 9.4
2018-Apr-17 21:00N 32°57' E 033°45'5 9.1
2018-Apr-17 20:30N 32°54' E 033°41'4 8.7
2018-Apr-17 20:00N 32°52' E 033°37'4 8.6
2018-Apr-17 19:30N 32°49' E 033°33'4 8.5
2018-Apr-17 19:01N 32°47' E 033°28'4 8.5
2018-Apr-17 18:30N 32°45' E 033°24'4 8.5
2018-Apr-17 18:00N 32°42' E 033°20'4 8.7
2018-Apr-17 17:30N 32°39' E 033°16'5 8.9
2018-Apr-17 16:59N 32°37' E 033°12'4 9.2
2018-Apr-17 16:30N 32°34' E 033°07'5 9.3
2018-Apr-17 16:00N 32°31' E 033°03'5 9.7
2018-Apr-17 15:30N 32°28' E 032°58'5 9.4
2018-Apr-17 15:00N 32°25' E 032°54'5 9.5
2018-Apr-17 14:30N 32°22' E 032°49'5 9.5
2018-Apr-17 14:01N 32°20' E 032°45'5 9.6
2018-Apr-17 13:30N 32°17' E 032°41'21 9.5
2018-Apr-17 11:16N 32°03' E 032°21'3 9.6
2018-Apr-17 11:00N 32°01' E 032°19'5 9.8
2018-Apr-17 10:30N 31°58' E 032°14'13 9.2
2018-Apr-17 09:08N 31°51' E 032°02'3 9.5
2018-Apr-17 08:51N 31°49' E 032°01'3 9.2
2018-Apr-17 08:30N 31°46' E 031°59'13 8.8
2018-Apr-17 07:04N 31°38' E 031°48'1 9.1
2018-Apr-17 07:00N 31°37' E 031°48'8 8.9
2018-Apr-17 06:04N 31°29' E 031°45'2 2.3
2018-Apr-17 05:18N 31°27' E 031°46'0 0.0
2018-Apr-17 04:54N 31°27' E 031°46'0 0.0
2018-Apr-16 20:21N 31°27' E 031°46'0 0.0
2018-Apr-16 17:54N 31°27' E 031°46'0 0.0
2018-Apr-16 16:30N 31°27' E 031°46'4 0.6
2018-Apr-16 08:50N 31°32' E 031°46'15 8.3
2018-Apr-16 06:59N 31°46' E 031°40'59 9.3
2018-Apr-16 00:40N 32°23' E 030°45'310.0
2018-Apr-16 00:22N 32°25' E 030°42'410.0
2018-Apr-15 23:55N 32°28' E 030°38'  
2018-Apr-12 13:18N 37°46' E 016°03'9 9.5
2018-Apr-12 12:18N 37°49' E 015°51'3 9.3
2018-Apr-12 11:59N 37°49' E 015°48'5 9.9
2018-Apr-12 11:30N 37°51' E 015°42'610.4
2018-Apr-12 10:53N 37°56' E 015°37'4 9.8
2018-Apr-12 10:30N 37°59' E 015°34'5 9.7
2018-Apr-12 09:59N 38°04' E 015°34'611.9
2018-Apr-12 09:30N 38°09' E 015°35'610.9
2018-Apr-12 08:59N 38°15' E 015°37'4 8.6
2018-Apr-12 08:30N 38°18' E 015°40'5 9.4
2018-Apr-12 08:00N 38°22' E 015°36'5 9.7
2018-Apr-12 07:30N 38°22' E 015°30'510.2
2018-Apr-12 07:01N 38°25' E 015°24'510.3
2018-Apr-12 06:29N 38°27' E 015°18'510.1
2018-Apr-12 06:00N 38°29' E 015°13'5 9.8
2018-Apr-12 05:30N 38°31' E 015°07'5 9.9
2018-Apr-12 04:58N 38°34' E 015°01'  
2018-Apr-09 13:52N 43°15' E 005°02'3 8.1
2018-Apr-09 13:30N 43°17' E 004°59'4 8.2
2018-Apr-09 13:00N 43°21' E 004°58'4 7.2
2018-Apr-09 12:30N 43°24' E 004°55'2 3.9
2018-Apr-09 11:56N 43°26' E 004°53'0 0.0
2018-Apr-09 11:14N 43°26' E 004°53'0 0.0
2018-Apr-09 10:56N 43°26' E 004°53'0 0.0
2018-Apr-09 10:29N 43°26' E 004°53'0 0.0
2018-Apr-09 09:59N 43°26' E 004°53'0 0.0
2018-Apr-09 09:29N 43°26' E 004°53'0 0.0
2018-Apr-09 08:41N 43°26' E 004°53'0 0.0
2018-Apr-09 08:29N 43°26' E 004°53'0 0.0
2018-Apr-09 07:59N 43°26' E 004°53'0 0.0
2018-Apr-09 07:29N 43°26' E 004°53'0 0.0
2018-Apr-09 06:56N 43°26' E 004°53'0 0.0
2018-Apr-09 06:29N 43°26' E 004°53'0 0.0
2018-Apr-09 05:59N 43°26' E 004°53'0 0.0
2018-Apr-09 05:29N 43°26' E 004°53'0 0.0
2018-Apr-09 04:59N 43°26' E 004°53'0 0.0
2018-Apr-09 04:29N 43°26' E 004°53'0 0.0
2018-Apr-09 03:59N 43°26' E 004°53'0 0.0
2018-Apr-09 03:29N 43°26' E 004°53'0 0.0
2018-Apr-09 02:56N 43°26' E 004°53'0 0.0
2018-Apr-09 01:56N 43°26' E 004°53'0 0.0
2018-Apr-09 01:20N 43°26' E 004°53'0 0.0
2018-Apr-09 00:50N 43°26' E 004°53'0 0.0
2018-Apr-09 00:26N 43°26' E 004°53'0 0.0
2018-Apr-08 23:56N 43°26' E 004°53'0 0.0
2018-Apr-08 23:26N 43°26' E 004°53'0 0.0
2018-Apr-08 22:56N 43°26' E 004°53'0 0.0
2018-Apr-08 22:26N 43°26' E 004°53'0 0.0
2018-Apr-08 21:56N 43°26' E 004°53'0 0.0
2018-Apr-08 21:29N 43°26' E 004°53'0 0.0
2018-Apr-08 20:53N 43°26' E 004°53'0 0.0
2018-Apr-08 20:20N 43°26' E 004°53'0 0.0
2018-Apr-08 19:59N 43°26' E 004°53'0 0.0
2018-Apr-08 19:29N 43°26' E 004°53'0 0.0
2018-Apr-08 18:56N 43°26' E 004°53'0 0.0
2018-Apr-08 18:26N 43°26' E 004°53'0 0.0
2018-Apr-08 17:47N 43°26' E 004°53'0 0.0
2018-Apr-08 17:29N 43°26' E 004°53'0 0.0
2018-Apr-08 16:59N 43°26' E 004°53'0 0.0
2018-Apr-08 16:29N 43°26' E 004°53'0 0.0
2018-Apr-08 15:59N 43°26' E 004°53'0 0.0
2018-Apr-08 15:29N 43°26' E 004°53'0 0.0
2018-Apr-08 14:59N 43°26' E 004°53'0 0.0
2018-Apr-08 14:29N 43°26' E 004°53'0 0.0
2018-Apr-08 13:59N 43°26' E 004°53'0 0.0
2018-Apr-08 13:23N 43°26' E 004°53'0 0.0
2018-Apr-08 12:59N 43°26' E 004°53'0 0.0
2018-Apr-08 12:29N 43°26' E 004°53'0 0.0
2018-Apr-08 11:59N 43°26' E 004°53'0 0.0
2018-Apr-08 11:23N 43°26' E 004°53'0 0.0
2018-Apr-08 10:59N 43°26' E 004°53'0 0.0
2018-Apr-08 10:29N 43°26' E 004°53'0 0.0
2018-Apr-08 09:59N 43°26' E 004°53'0 0.0
2018-Apr-08 09:29N 43°26' E 004°53'0 0.0
2018-Apr-08 08:59N 43°26' E 004°53'0 0.0
2018-Apr-08 08:29N 43°26' E 004°53'  

Dump ship's entire track history